Time;durP1;ratioP1;P1;durP2;ratioP2;P2;SDS_P1;SDS_P2;PMS_P1;PMS_P2;Temp;Humidity;BMP_temperature;BMP_pressure;BME280_temperature;BME280_humidity;BME280_pressure;Samples;Min_cycle;Max_cycle;Signal;HPM_P1;HPM_P2
2022/06/26 00:00:32;;;;;;;;;;;;;;;;;;5054284;28;20373;-77
2022/06/26 00:02:58;;;;;;;;;;;;;;;;;;5054213;28;19912;-74
2022/06/26 00:05:24;;;;;;;;;;;;;;;;;;5052827;28;19916;-75
2022/06/26 00:07:50;;;;;;;;;;;;;;;;;;5052658;28;19921;-75
2022/06/26 00:10:16;;;;;;;;;;;;;;;;;;5054057;28;20266;-73
2022/06/26 00:12:42;;;;;;;;;;;;;;;;;;5054060;28;19936;-75
2022/06/26 00:15:07;;;;;;;;;;;;;;;;;;5054343;28;19916;-75
2022/06/26 00:17:33;;;;;;;;;;;;;;;;;;5053939;28;19916;-73
2022/06/26 00:19:59;;;;;;;;;;;;;;;;;;5053941;28;19956;-75
2022/06/26 00:22:26;;;;;;;;;;;;;;;;;;5053914;28;19913;-74
2022/06/26 00:24:52;;;;;;;;;;;;;;;;;;5054153;28;19908;-74
2022/06/26 00:27:19;;;;;;;;;;;;;;;;;;5054142;28;20292;-74
2022/06/26 00:29:45;;;;;;;;;;;;;;;;;;5052458;28;20386;-76
2022/06/26 00:32:11;;;;;;;;;;;;;;;;;;5053173;28;19955;-75
2022/06/26 00:34:37;;;;;;;;;;;;;;;;;;5052472;28;19909;-74
2022/06/26 00:37:03;;;;;;;;;;;;;;;;;;5053707;28;20307;-76
2022/06/26 00:39:29;;;;;;;;;;;;;;;;;;5053743;28;20419;-75
2022/06/26 00:41:54;;;;;;;;;;;;;;;;;;5053664;28;19915;-76
2022/06/26 00:44:21;;;;;;;;;;;;;;;;;;5052371;28;20283;-74
2022/06/26 00:46:46;;;;;;;;;;;;;;;;;;5053951;28;20370;-76
2022/06/26 00:49:12;;;;;;;;;;;;;;;;;;5053513;28;20007;-74
2022/06/26 00:51:39;;;;;;;;;;;;;;;;;;5053596;28;19909;-75
2022/06/26 00:54:05;;;;;;;;;;;;;;;;;;5052018;28;19909;-73
2022/06/26 00:56:31;;;;;;;;;;;;;;;;;;5052214;28;19909;-75
2022/06/26 00:58:57;;;;;;;;;;;;;;;;;;5054060;28;19909;-76
2022/06/26 01:01:23;;;;;;;;;;;;;;;;;;5052218;28;19909;-75
2022/06/26 01:03:49;;;;;;;;;;;;;;;;;;5052108;28;19916;-74
2022/06/26 01:06:15;;;;;;;;;;;;;;;;;;5053364;28;20005;-74
2022/06/26 01:08:41;;;;;;;;;;;;;;;;;;5053237;28;19921;-74
2022/06/26 01:11:17;;;;;;;;;;;;;;;;;;5053373;28;20376;-74
2022/06/26 01:13:43;;;;;;;;;;;;;;;;;;5051872;28;20320;-76
2022/06/26 01:16:09;;;;;;;;;;;;;;;;;;5053353;28;19915;-76
2022/06/26 01:18:35;;;;;;;;;;;;;;;;;;5053347;28;19916;-76
2022/06/26 01:21:00;;;;;;;;;;;;;;;;;;5052016;28;20372;-75
2022/06/26 01:23:26;;;;;;;;;;;;;;;;;;5053275;28;19948;-76
2022/06/26 01:25:52;;;;;;;;;;;;;;;;;;5053784;28;20264;-73
2022/06/26 01:28:18;;;;;;;;;;;;;;;;;;5053426;28;19916;-75
2022/06/26 01:30:44;;;;;;;;;;;;;;;;;;5051964;28;19909;-74
2022/06/26 01:33:10;;;;;;;;;;;;;;;;;;5053178;28;19916;-75
2022/06/26 01:35:36;;;;;;;;;;;;;;;;;;5053168;28;19916;-76
2022/06/26 01:38:02;;;;;;;;;;;;;;;;;;5053724;28;19999;-73
2022/06/26 01:40:28;;;;;;;;;;;;;;;;;;5051785;28;19919;-76
2022/06/26 01:42:53;;;;;;;;;;;;;;;;;;5054768;28;19909;-75
2022/06/26 01:45:19;;;;;;;;;;;;;;;;;;5056800;28;19908;-75
2022/06/26 01:47:45;;;;;;;;;;;;;;;;;;5055556;28;19959;-76
2022/06/26 01:50:11;;;;;;;;;;;;;;;;;;5056679;28;20258;-76
2022/06/26 01:52:37;;;;;;;;;;;;;;;;;;5056715;28;19958;-74
2022/06/26 01:55:03;;;;;;;;;;;;;;;;;;5055319;28;19983;-75
2022/06/26 01:57:29;;;;;;;;;;;;;;;;;;5055331;28;19952;-74
2022/06/26 01:59:55;;;;;;;;;;;;;;;;;;5056795;28;19908;-76
2022/06/26 02:02:20;;;;;;;;;;;;;;;;;;5055266;28;19958;-74
2022/06/26 02:04:46;;;;;;;;;;;;;;;;;;5056421;28;19932;-75
2022/06/26 02:07:12;;;;;;;;;;;;;;;;;;5056241;28;19909;-75
2022/06/26 02:15:08;;;;;;;;;;;;;;;;;;5056310;28;19920;-74
2022/06/26 02:17:33;;;;;;;;;;;;;;;;;;5056790;28;19909;-74
2022/06/26 02:19:59;;;;;;;;;;;;;;;;;;5056146;28;19954;-75
2022/06/26 02:22:25;;;;;;;;;;;;;;;;;;5056426;28;20281;-74
2022/06/26 02:24:51;;;;;;;;;;;;;;;;;;5056076;28;19908;-76
2022/06/26 02:27:17;;;;;;;;;;;;;;;;;;5056051;28;19999;-77
2022/06/26 02:29:43;;;;;;;;;;;;;;;;;;5054637;28;20003;-76
2022/06/26 02:32:09;;;;;;;;;;;;;;;;;;5056249;28;19954;-74
2022/06/26 02:34:35;;;;;;;;;;;;;;;;;;5056195;28;19908;-76
2022/06/26 02:37:01;;;;;;;;;;;;;;;;;;5055887;28;19913;-75
2022/06/26 02:39:27;;;;;;;;;;;;;;;;;;5056359;28;20475;-74
2022/06/26 02:41:53;;;;;;;;;;;;;;;;;;5054516;28;19952;-75
2022/06/26 02:44:20;;;;;;;;;;;;;;;;;;5056330;28;20337;-77
2022/06/26 02:46:45;;;;;;;;;;;;;;;;;;5056002;28;19999;-75
2022/06/26 02:49:11;;;;;;;;;;;;;;;;;;5054310;28;19948;-74
2022/06/26 02:51:38;;;;;;;;;;;;;;;;;;5056148;28;20059;-74
2022/06/26 02:54:04;;;;;;;;;;;;;;;;;;5053734;28;19913;-74
2022/06/26 02:56:30;;;;;;;;;;;;;;;;;;5055504;28;19909;-77
2022/06/26 02:58:56;;;;;;;;;;;;;;;;;;5054215;28;19916;-74
2022/06/26 03:01:22;;;;;;;;;;;;;;;;;;5054098;28;19909;-76
2022/06/26 03:03:48;;;;;;;;;;;;;;;;;;5055946;28;19920;-75
2022/06/26 03:06:13;;;;;;;;;;;;;;;;;;5053893;28;19920;-75
2022/06/26 03:08:39;;;;;;;;;;;;;;;;;;5055111;28;19925;-75
2022/06/26 03:11:05;;;;;;;;;;;;;;;;;;5055225;28;19909;-75
2022/06/26 03:13:31;;;;;;;;;;;;;;;;;;5055494;28;19961;-74
2022/06/26 03:15:57;;;;;;;;;;;;;;;;;;5055088;28;19917;-75
2022/06/26 03:18:23;;;;;;;;;;;;;;;;;;5055071;28;19955;-75
2022/06/26 03:20:49;;;;;;;;;;;;;;;;;;5053768;28;19908;-74
2022/06/26 03:23:15;;;;;;;;;;;;;;;;;;5055034;28;19909;-74
2022/06/26 03:25:41;;;;;;;;;;;;;;;;;;5055258;28;19909;-74
2022/06/26 03:28:06;;;;;;;;;;;;;;;;;;5054911;28;20395;-73
2022/06/26 03:30:32;;;;;;;;;;;;;;;;;;5055322;28;20388;-75
2022/06/26 03:32:58;;;;;;;;;;;;;;;;;;5054755;28;20365;-73
2022/06/26 03:35:24;;;;;;;;;;;;;;;;;;5055075;28;19916;-74
2022/06/26 03:37:50;;;;;;;;;;;;;;;;;;5053371;28;19909;-75
2022/06/26 03:40:16;;;;;;;;;;;;;;;;;;5054693;28;19916;-75
2022/06/26 03:42:42;;;;;;;;;;;;;;;;;;5055150;28;19916;-75
2022/06/26 03:45:08;;;;;;;;;;;;;;;;;;5054563;28;19999;-74
2022/06/26 03:47:34;;;;;;;;;;;;;;;;;;5054493;28;19916;-76
2022/06/26 03:49:59;;;;;;;;;;;;;;;;;;5054960;28;19913;-75
2022/06/26 03:52:25;;;;;;;;;;;;;;;;;;5054697;28;19909;-75
2022/06/26 03:54:51;;;;;;;;;;;;;;;;;;5054380;28;20284;-74
2022/06/26 03:57:17;;;;;;;;;;;;;;;;;;5054889;28;20429;-75
2022/06/26 03:59:43;;;;;;;;;;;;;;;;;;5053028;28;19909;-75
2022/06/26 04:02:09;;;;;;;;;;;;;;;;;;5054228;28;19913;-74
2022/06/26 04:04:35;;;;;;;;;;;;;;;;;;5054478;28;19909;-77
2022/06/26 04:07:01;;;;;;;;;;;;;;;;;;5053099;28;19909;-74
2022/06/26 04:09:27;;;;;;;;;;;;;;;;;;5054037;28;19913;-75
2022/06/26 04:11:53;;;;;;;;;;;;;;;;;;5054085;28;19909;-76
2022/06/26 04:14:18;;;;;;;;;;;;;;;;;;5054101;28;19913;-73
2022/06/26 04:16:44;;;;;;;;;;;;;;;;;;5052717;28;20004;-75
2022/06/26 04:19:10;;;;;;;;;;;;;;;;;;5054575;28;19912;-74
2022/06/26 04:21:36;;;;;;;;;;;;;;;;;;5053962;28;19909;-76
2022/06/26 04:24:02;;;;;;;;;;;;;;;;;;5052652;28;20261;-73
2022/06/26 04:26:28;;;;;;;;;;;;;;;;;;5054479;28;20356;-76
2022/06/26 04:28:54;;;;;;;;;;;;;;;;;;5054048;28;20031;-75
2022/06/26 04:31:20;;;;;;;;;;;;;;;;;;5053837;28;19962;-75
2022/06/26 04:33:46;;;;;;;;;;;;;;;;;;5054066;28;19941;-76
2022/06/26 04:36:12;;;;;;;;;;;;;;;;;;5052479;28;20334;-73
2022/06/26 04:38:38;;;;;;;;;;;;;;;;;;5053746;28;19913;-74
2022/06/26 04:41:31;;;;;;;;;;;;;;;;;;5053698;28;19916;-75
2022/06/26 04:43:50;;;;;;;;;;;;;;;;;;5053559;28;19948;-76
2022/06/26 04:46:16;;;;;;;;;;;;;;;;;;5053678;28;19909;-76
2022/06/26 04:48:42;;;;;;;;;;;;;;;;;;5052288;28;19919;-73
2022/06/26 04:51:08;;;;;;;;;;;;;;;;;;5053570;28;19913;-77
2022/06/26 04:53:33;;;;;;;;;;;;;;;;;;5052315;28;20004;-74
2022/06/26 04:55:59;;;;;;;;;;;;;;;;;;5054107;28;20360;-74
2022/06/26 04:58:25;;;;;;;;;;;;;;;;;;5053499;28;19915;-73
2022/06/26 05:00:51;;;;;;;;;;;;;;;;;;5053505;28;19908;-74
2022/06/26 05:03:17;;;;;;;;;;;;;;;;;;5053508;28;19909;-73
2022/06/26 05:05:43;;;;;;;;;;;;;;;;;;5053637;28;19908;-74
2022/06/26 05:08:09;;;;;;;;;;;;;;;;;;5053235;28;19956;-73
2022/06/26 05:10:35;;;;;;;;;;;;;;;;;;5053301;28;19913;-74
2022/06/26 05:13:01;;;;;;;;;;;;;;;;;;5053446;28;19909;-74
2022/06/26 05:15:27;;;;;;;;;;;;;;;;;;5053633;28;19909;-75
2022/06/26 05:17:53;;;;;;;;;;;;;;;;;;5055025;28;19988;-75
2022/06/26 05:20:19;;;;;;;;;;;;;;;;;;5057335;28;19908;-76
2022/06/26 05:22:45;;;;;;;;;;;;;;;;;;5057565;28;19916;-75
2022/06/26 05:25:11;;;;;;;;;;;;;;;;;;5057230;28;20020;-77
2022/06/26 05:27:37;;;;;;;;;;;;;;;;;;5057205;28;19948;-76
2022/06/26 05:30:03;;;;;;;;;;;;;;;;;;5057326;28;19919;-74
2022/06/26 05:32:28;;;;;;;;;;;;;;;;;;5057363;28;19920;-73
2022/06/26 05:34:54;;;;;;;;;;;;;;;;;;5057636;28;19978;-74
2022/06/26 05:37:20;;;;;;;;;;;;;;;;;;5057019;28;19909;-76
2022/06/26 05:39:46;;;;;;;;;;;;;;;;;;5056972;28;19909;-74
2022/06/26 05:42:12;;;;;;;;;;;;;;;;;;5056932;28;20384;-74
2022/06/26 05:44:38;;;;;;;;;;;;;;;;;;5055581;28;19919;-74
2022/06/26 05:47:04;;;;;;;;;;;;;;;;;;5057089;28;20272;-74
2022/06/26 05:49:30;;;;;;;;;;;;;;;;;;5056969;28;19913;-74
2022/06/26 05:51:56;;;;;;;;;;;;;;;;;;5056736;28;19908;-74
2022/06/26 05:54:22;;;;;;;;;;;;;;;;;;5056717;28;19909;-76
2022/06/26 05:56:48;;;;;;;;;;;;;;;;;;5056939;28;19912;-77
2022/06/26 05:59:14;;;;;;;;;;;;;;;;;;5056602;28;19909;-75
2022/06/26 06:01:40;;;;;;;;;;;;;;;;;;5056592;28;20019;-75
2022/06/26 06:04:06;;;;;;;;;;;;;;;;;;5056820;28;19908;-75
2022/06/26 06:06:32;;;;;;;;;;;;;;;;;;5056386;28;19915;-76
2022/06/26 06:08:58;;;;;;;;;;;;;;;;;;5054903;28;19924;-75
2022/06/26 06:11:24;;;;;;;;;;;;;;;;;;5055073;28;20008;-75
2022/06/26 06:13:51;;;;;;;;;;;;;;;;;;5056890;28;20014;-77
2022/06/26 06:16:17;;;;;;;;;;;;;;;;;;5056320;28;19908;-74
2022/06/26 06:18:43;;;;;;;;;;;;;;;;;;5056548;28;20380;-74
2022/06/26 06:21:09;;;;;;;;;;;;;;;;;;5056466;28;20066;-74
2022/06/26 06:23:35;;;;;;;;;;;;;;;;;;5056178;28;19980;-73
2022/06/26 06:26:01;;;;;;;;;;;;;;;;;;5056120;28;19954;-75
2022/06/26 06:28:27;;;;;;;;;;;;;;;;;;5054363;28;19909;-75
2022/06/26 06:30:53;;;;;;;;;;;;;;;;;;5055494;28;20269;-75
2022/06/26 06:33:19;;;;;;;;;;;;;;;;;;5056254;28;20000;-75
2022/06/26 06:35:44;;;;;;;;;;;;;;;;;;5054677;28;20284;-76
2022/06/26 06:38:10;;;;;;;;;;;;;;;;;;5055910;28;19917;-77
2022/06/26 06:40:37;;;;;;;;;;;;;;;;;;5056112;28;19912;-77
2022/06/26 06:43:03;;;;;;;;;;;;;;;;;;5055916;28;20357;-75
2022/06/26 06:45:29;;;;;;;;;;;;;;;;;;5055746;28;19997;-75
2022/06/26 06:47:55;;;;;;;;;;;;;;;;;;5055980;28;19958;-76
2022/06/26 06:50:21;;;;;;;;;;;;;;;;;;5055929;28;19912;-74
2022/06/26 06:52:47;;;;;;;;;;;;;;;;;;5054344;28;19916;-75
2022/06/26 06:55:13;;;;;;;;;;;;;;;;;;5056118;28;20261;-77
2022/06/26 06:57:39;;;;;;;;;;;;;;;;;;5054266;28;19908;-76
2022/06/26 07:00:04;;;;;;;;;;;;;;;;;;5054200;28;19971;-77
2022/06/26 07:02:31;;;;;;;;;;;;;;;;;;5055390;28;19915;-76
2022/06/26 07:04:57;;;;;;;;;;;;;;;;;;5055614;28;19909;-73
2022/06/26 07:07:23;;;;;;;;;;;;;;;;;;5055155;28;19917;-74
2022/06/26 07:09:49;;;;;;;;;;;;;;;;;;5055230;28;19970;-74
2022/06/26 07:12:15;;;;;;;;;;;;;;;;;;5055535;28;19940;-75
2022/06/26 07:14:41;;;;;;;;;;;;;;;;;;5055224;28;20414;-76
2022/06/26 07:17:08;;;;;;;;;;;;;;;;;;5053913;28;19909;-75
2022/06/26 07:19:34;;;;;;;;;;;;;;;;;;5055428;28;19909;-75
2022/06/26 07:22:00;;;;;;;;;;;;;;;;;;5055026;28;19916;-75
2022/06/26 07:24:26;;;;;;;;;;;;;;;;;;5055003;28;19954;-75
2022/06/26 07:26:52;;;;;;;;;;;;;;;;;;5053667;28;19999;-74
2022/06/26 07:29:18;;;;;;;;;;;;;;;;;;5055418;28;20367;-76
2022/06/26 07:31:45;;;;;;;;;;;;;;;;;;5055157;28;19915;-76
2022/06/26 07:34:16;;;;;;;;;;;;;;;;;;5053391;28;20270;-75
2022/06/26 07:36:42;;;;;;;;;;;;;;;;;;5054796;28;20383;-75
2022/06/26 07:39:08;;;;;;;;;;;;;;;;;;5055301;28;19999;-74
2022/06/26 07:41:33;;;;;;;;;;;;;;;;;;5054562;28;19958;-76
2022/06/26 07:43:59;;;;;;;;;;;;;;;;;;5054872;28;19908;-73
2022/06/26 07:46:25;;;;;;;;;;;;;;;;;;5054831;28;19911;-76
2022/06/26 07:48:51;;;;;;;;;;;;;;;;;;5055044;28;20272;-73
2022/06/26 07:51:17;;;;;;;;;;;;;;;;;;5053209;28;19916;-77
2022/06/26 07:53:45;;;;;;;;;;;;;;;;;;5054765;28;19916;-74
2022/06/26 07:56:11;;;;;;;;;;;;;;;;;;5054375;28;19909;-77
2022/06/26 07:58:37;;;;;;;;;;;;;;;;;;5054620;28;19916;-74
2022/06/26 08:01:03;;;;;;;;;;;;;;;;;;5052997;28;20302;-75
2022/06/26 08:03:29;;;;;;;;;;;;;;;;;;5053008;28;19963;-74
2022/06/26 08:05:55;;;;;;;;;;;;;;;;;;5052881;28;19916;-75
2022/06/26 08:08:21;;;;;;;;;;;;;;;;;;5053985;28;19920;-75
2022/06/26 08:10:47;;;;;;;;;;;;;;;;;;5054706;28;20253;-75
2022/06/26 08:13:13;;;;;;;;;;;;;;;;;;5054398;28;19909;-76
2022/06/26 08:15:38;;;;;;;;;;;;;;;;;;5054082;28;19917;-75
2022/06/26 08:18:04;;;;;;;;;;;;;;;;;;5054055;28;19913;-78
2022/06/26 08:20:30;;;;;;;;;;;;;;;;;;5054568;28;20268;-76
2022/06/26 08:22:56;;;;;;;;;;;;;;;;;;5053993;28;20004;-75
2022/06/26 08:25:22;;;;;;;;;;;;;;;;;;5052587;28;19947;-76
2022/06/26 08:27:48;;;;;;;;;;;;;;;;;;5054499;28;19913;-76
2022/06/26 08:30:14;;;;;;;;;;;;;;;;;;5053750;28;20361;-75
2022/06/26 08:32:40;;;;;;;;;;;;;;;;;;5054112;28;19909;-76
2022/06/26 08:35:06;;;;;;;;;;;;;;;;;;5052488;28;20329;-74
2022/06/26 08:37:32;;;;;;;;;;;;;;;;;;5053799;28;19999;-75
2022/06/26 08:39:58;;;;;;;;;;;;;;;;;;5054006;28;19915;-75
2022/06/26 08:42:23;;;;;;;;;;;;;;;;;;5053664;28;19909;-75
2022/06/26 08:44:49;;;;;;;;;;;;;;;;;;5053671;28;20353;-75
2022/06/26 08:47:15;;;;;;;;;;;;;;;;;;5053651;28;19909;-77
2022/06/26 08:49:41;;;;;;;;;;;;;;;;;;5053807;28;19913;-76
2022/06/26 08:52:07;;;;;;;;;;;;;;;;;;5053296;28;19909;-75
2022/06/26 08:54:33;;;;;;;;;;;;;;;;;;5053818;28;19909;-77
2022/06/26 08:56:59;;;;;;;;;;;;;;;;;;5053446;28;19909;-76
2022/06/26 08:59:26;;;;;;;;;;;;;;;;;;5053512;28;19909;-78
2022/06/26 09:01:52;;;;;;;;;;;;;;;;;;5054077;28;19959;-76
2022/06/26 09:04:18;;;;;;;;;;;;;;;;;;5053474;28;20288;-77
2022/06/26 09:06:44;;;;;;;;;;;;;;;;;;5053944;28;19916;-77
2022/06/26 09:09:10;;;;;;;;;;;;;;;;;;5051646;28;19920;-74
2022/06/26 09:11:36;;;;;;;;;;;;;;;;;;5053700;28;19909;-76
2022/06/26 09:14:02;;;;;;;;;;;;;;;;;;5053383;28;20366;-75
2022/06/26 09:16:28;;;;;;;;;;;;;;;;;;5052110;28;19909;-76
2022/06/26 09:18:54;;;;;;;;;;;;;;;;;;5052064;28;20320;-76
2022/06/26 09:21:19;;;;;;;;;;;;;;;;;;5053295;28;19956;-76
2022/06/26 09:23:45;;;;;;;;;;;;;;;;;;5053489;28;19909;-76
2022/06/26 09:26:11;;;;;;;;;;;;;;;;;;5053196;28;19920;-75
2022/06/26 09:28:37;;;;;;;;;;;;;;;;;;5053212;28;19909;-76
2022/06/26 09:31:03;;;;;;;;;;;;;;;;;;5053780;28;19909;-77
2022/06/26 09:33:29;;;;;;;;;;;;;;;;;;5053153;28;19955;-76
2022/06/26 09:35:55;;;;;;;;;;;;;;;;;;5053172;28;20421;-74
2022/06/26 09:38:21;;;;;;;;;;;;;;;;;;5053135;28;19909;-75
2022/06/26 09:40:47;;;;;;;;;;;;;;;;;;5053316;28;19933;-77
2022/06/26 09:43:13;;;;;;;;;;;;;;;;;;5053087;28;19909;-74
2022/06/26 09:45:39;;;;;;;;;;;;;;;;;;5053105;28;19913;-76
2022/06/26 09:48:05;;;;;;;;;;;;;;;;;;5053354;28;20276;-75
2022/06/26 09:50:31;;;;;;;;;;;;;;;;;;5052991;28;19913;-76
2022/06/26 09:52:57;;;;;;;;;;;;;;;;;;5053005;28;19916;-74
2022/06/26 09:55:23;;;;;;;;;;;;;;;;;;5053571;28;20380;-74
2022/06/26 09:57:49;;;;;;;;;;;;;;;;;;5053251;28;19913;-76
2022/06/26 10:00:15;;;;;;;;;;;;;;;;;;5052904;28;20024;-76
2022/06/26 10:08:10;;;;;;;;;;;;;;;;;;5056222;28;19975;-76
2022/06/26 10:10:37;;;;;;;;;;;;;;;;;;5056870;28;20307;-77
2022/06/26 10:13:03;;;;;;;;;;;;;;;;;;5056333;28;19952;-74
2022/06/26 10:15:28;;;;;;;;;;;;;;;;;;5054933;28;19935;-73
2022/06/26 10:17:54;;;;;;;;;;;;;;;;;;5056769;28;20003;-75
2022/06/26 10:20:20;;;;;;;;;;;;;;;;;;5056440;28;19909;-76
2022/06/26 10:22:46;;;;;;;;;;;;;;;;;;5054835;28;19909;-74
2022/06/26 10:25:12;;;;;;;;;;;;;;;;;;5056080;28;19913;-75
2022/06/26 10:27:39;;;;;;;;;;;;;;;;;;5056641;28;19992;-74
2022/06/26 10:30:05;;;;;;;;;;;;;;;;;;5054712;28;20319;-74
2022/06/26 10:32:31;;;;;;;;;;;;;;;;;;5056038;28;19995;-74
2022/06/26 10:34:56;;;;;;;;;;;;;;;;;;5054633;28;19913;-77
2022/06/26 10:37:22;;;;;;;;;;;;;;;;;;5056054;28;20043;-75
2022/06/26 10:39:49;;;;;;;;;;;;;;;;;;5055831;28;20299;-75
2022/06/26 10:45:00;;;;;;;;;;;;;;;;;;5055550;28;20070;-75
2022/06/26 10:47:26;;;;;;;;;;;;;;;;;;5055706;28;20321;-74
2022/06/26 10:49:51;;;;;;;;;;;;;;;;;;5056082;28;19967;-76
2022/06/26 10:52:17;;;;;;;;;;;;;;;;;;5054292;28;19964;-74
2022/06/26 10:54:43;;;;;;;;;;;;;;;;;;5054243;28;19955;-76
2022/06/26 10:57:09;;;;;;;;;;;;;;;;;;5055547;28;20365;-76
2022/06/26 10:59:35;;;;;;;;;;;;;;;;;;5054228;28;19916;-75
2022/06/26 11:02:01;;;;;;;;;;;;;;;;;;5055765;28;19909;-75
2022/06/26 11:04:27;;;;;;;;;;;;;;;;;;5055413;28;19909;-76
2022/06/26 11:06:53;;;;;;;;;;;;;;;;;;5055368;28;19956;-75
2022/06/26 11:09:19;;;;;;;;;;;;;;;;;;5055087;28;19925;-75
2022/06/26 11:11:45;;;;;;;;;;;;;;;;;;5053981;28;19909;-76
2022/06/26 11:14:11;;;;;;;;;;;;;;;;;;5055511;28;19916;-76
2022/06/26 11:16:43;;;;;;;;;;;;;;;;;;5054760;28;19908;-75
2022/06/26 11:19:08;;;;;;;;;;;;;;;;;;5055700;28;19913;-75
2022/06/26 11:21:35;;;;;;;;;;;;;;;;;;5055080;28;20284;-76
2022/06/26 11:24:01;;;;;;;;;;;;;;;;;;5055387;28;19908;-73
2022/06/26 11:26:27;;;;;;;;;;;;;;;;;;5055269;28;19916;-74
2022/06/26 11:28:53;;;;;;;;;;;;;;;;;;5055132;28;19966;-74
2022/06/26 11:31:19;;;;;;;;;;;;;;;;;;5054871;28;19908;-74
2022/06/26 11:33:45;;;;;;;;;;;;;;;;;;5055439;28;20408;-74
2022/06/26 11:36:11;;;;;;;;;;;;;;;;;;5055085;28;19909;-75
2022/06/26 11:38:37;;;;;;;;;;;;;;;;;;5054775;28;20343;-73
2022/06/26 11:41:02;;;;;;;;;;;;;;;;;;5054977;28;19909;-74
2022/06/26 11:43:28;;;;;;;;;;;;;;;;;;5053260;28;20019;-73
2022/06/26 11:45:54;;;;;;;;;;;;;;;;;;5054921;28;19908;-73
2022/06/26 11:48:21;;;;;;;;;;;;;;;;;;5054579;28;19909;-73
2022/06/26 11:50:47;;;;;;;;;;;;;;;;;;5054758;28;19917;-75
2022/06/26 11:53:13;;;;;;;;;;;;;;;;;;5053227;28;19931;-73
2022/06/26 11:55:39;;;;;;;;;;;;;;;;;;5053169;28;20004;-74
2022/06/26 11:58:04;;;;;;;;;;;;;;;;;;5054970;28;19909;-75
2022/06/26 12:00:30;;;;;;;;;;;;;;;;;;5054403;28;19909;-75
2022/06/26 12:02:56;;;;;;;;;;;;;;;;;;5054902;28;20418;-74
2022/06/26 12:05:22;;;;;;;;;;;;;;;;;;5054177;28;20296;-75
2022/06/26 12:07:48;;;;;;;;;;;;;;;;;;5054249;28;19986;-76
2022/06/26 12:10:14;;;;;;;;;;;;;;;;;;5054138;28;19913;-75
2022/06/26 12:12:40;;;;;;;;;;;;;;;;;;5054412;28;19996;-73
2022/06/26 12:15:07;;;;;;;;;;;;;;;;;;5054133;28;20319;-75
2022/06/26 12:17:33;;;;;;;;;;;;;;;;;;5054108;28;19908;-75
2022/06/26 12:19:59;;;;;;;;;;;;;;;;;;5054331;28;19935;-77
2022/06/26 12:22:25;;;;;;;;;;;;;;;;;;5054305;28;19942;-74
2022/06/26 12:24:50;;;;;;;;;;;;;;;;;;5052681;28;19909;-76
2022/06/26 12:27:16;;;;;;;;;;;;;;;;;;5051867;28;19958;-75
2022/06/26 12:29:42;;;;;;;;;;;;;;;;;;5052555;28;19912;-75
2022/06/26 12:32:08;;;;;;;;;;;;;;;;;;5054137;28;19956;-74
2022/06/26 12:34:34;;;;;;;;;;;;;;;;;;5053809;28;20285;-76
2022/06/26 12:37:00;;;;;;;;;;;;;;;;;;5054330;28;20431;-77
2022/06/26 12:39:26;;;;;;;;;;;;;;;;;;5053788;28;19909;-75
2022/06/26 12:41:52;;;;;;;;;;;;;;;;;;5054028;28;19959;-77
2022/06/26 12:44:18;;;;;;;;;;;;;;;;;;5053715;28;19908;-76
2022/06/26 12:46:44;;;;;;;;;;;;;;;;;;5053928;28;19940;-75
2022/06/26 12:49:10;;;;;;;;;;;;;;;;;;5053592;28;19943;-75
2022/06/26 12:51:35;;;;;;;;;;;;;;;;;;5053908;28;19909;-76
2022/06/26 12:54:01;;;;;;;;;;;;;;;;;;5053515;28;20373;-75
2022/06/26 12:56:27;;;;;;;;;;;;;;;;;;5053507;28;19916;-75
2022/06/26 12:58:53;;;;;;;;;;;;;;;;;;5052217;28;19909;-76
2022/06/26 13:01:19;;;;;;;;;;;;;;;;;;5054082;28;19940;-74
2022/06/26 13:03:46;;;;;;;;;;;;;;;;;;5053757;28;19955;-75
2022/06/26 13:06:12;;;;;;;;;;;;;;;;;;5053446;28;20368;-76
2022/06/26 13:08:38;;;;;;;;;;;;;;;;;;5051940;28;20008;-74
2022/06/26 13:13:48;;;;;;;;;;;;;;;;;;5053174;28;20076;-76
2022/06/26 13:16:14;;;;;;;;;;;;;;;;;;5053402;28;20369;-75
2022/06/26 13:18:40;;;;;;;;;;;;;;;;;;5053340;28;19909;-73
2022/06/26 13:21:06;;;;;;;;;;;;;;;;;;5053335;28;20376;-77
2022/06/26 13:23:32;;;;;;;;;;;;;;;;;;5053308;28;19909;-75
2022/06/26 13:25:58;;;;;;;;;;;;;;;;;;5052012;28;19955;-77
2022/06/26 13:28:23;;;;;;;;;;;;;;;;;;5053289;28;20293;-76
2022/06/26 13:30:49;;;;;;;;;;;;;;;;;;5051901;28;19920;-73
2022/06/26 13:33:15;;;;;;;;;;;;;;;;;;5053202;28;20360;-75
2022/06/26 13:35:42;;;;;;;;;;;;;;;;;;5053204;28;19909;-75
2022/06/26 13:38:08;;;;;;;;;;;;;;;;;;5053918;28;20353;-74
2022/06/26 13:40:34;;;;;;;;;;;;;;;;;;5057031;28;19916;-76
2022/06/26 13:43:00;;;;;;;;;;;;;;;;;;5057276;28;19908;-74
2022/06/26 13:45:26;;;;;;;;;;;;;;;;;;5056908;28;19909;-77
2022/06/26 13:47:51;;;;;;;;;;;;;;;;;;5057160;28;19963;-76
2022/06/26 13:50:17;;;;;;;;;;;;;;;;;;5056888;28;19919;-75
2022/06/26 13:52:43;;;;;;;;;;;;;;;;;;5056774;28;19909;-77
2022/06/26 13:55:09;;;;;;;;;;;;;;;;;;5057322;28;20364;-76
2022/06/26 13:57:35;;;;;;;;;;;;;;;;;;5056681;28;19946;-75
2022/06/26 14:00:01;;;;;;;;;;;;;;;;;;5057213;28;20340;-74
2022/06/26 14:02:27;;;;;;;;;;;;;;;;;;5056829;28;19909;-76
2022/06/26 14:04:53;;;;;;;;;;;;;;;;;;5056994;28;19915;-75
2022/06/26 14:07:19;;;;;;;;;;;;;;;;;;5056805;28;19924;-76
2022/06/26 14:09:45;;;;;;;;;;;;;;;;;;5056713;28;19909;-75
2022/06/26 14:12:11;;;;;;;;;;;;;;;;;;5056417;28;20400;-75
2022/06/26 14:14:36;;;;;;;;;;;;;;;;;;5056436;28;19958;-77
2022/06/26 14:17:02;;;;;;;;;;;;;;;;;;5056903;28;20309;-76
2022/06/26 14:19:28;;;;;;;;;;;;;;;;;;5055014;28;19919;-76
2022/06/26 14:27:23;;;;;;;;;;;;;;;;;;5056175;28;19916;-75
2022/06/26 14:29:49;;;;;;;;;;;;;;;;;;5056002;28;20360;-77
2022/06/26 14:32:15;;;;;;;;;;;;;;;;;;5056016;28;19915;-74
2022/06/26 14:34:41;;;;;;;;;;;;;;;;;;5056024;28;20007;-75
2022/06/26 14:37:07;;;;;;;;;;;;;;;;;;5055925;28;20387;-75
2022/06/26 14:39:33;;;;;;;;;;;;;;;;;;5055928;28;19913;-77
2022/06/26 14:41:59;;;;;;;;;;;;;;;;;;5056091;28;19913;-75
2022/06/26 14:44:25;;;;;;;;;;;;;;;;;;5056112;28;19909;-74
2022/06/26 14:46:50;;;;;;;;;;;;;;;;;;5055748;28;19909;-76
2022/06/26 14:49:16;;;;;;;;;;;;;;;;;;5055698;28;19917;-76
2022/06/26 14:51:42;;;;;;;;;;;;;;;;;;5054877;28;19909;-75
2022/06/26 14:54:08;;;;;;;;;;;;;;;;;;5056160;28;20332;-74
2022/06/26 14:56:34;;;;;;;;;;;;;;;;;;5055587;28;20284;-77
2022/06/26 14:59:00;;;;;;;;;;;;;;;;;;5055221;28;19916;-73
2022/06/26 15:01:26;;;;;;;;;;;;;;;;;;5055308;28;19909;-75
2022/06/26 15:03:52;;;;;;;;;;;;;;;;;;5055431;28;20365;-78
2022/06/26 15:06:18;;;;;;;;;;;;;;;;;;5055175;28;19919;-77
2022/06/26 15:08:44;;;;;;;;;;;;;;;;;;5055094;28;19925;-74
2022/06/26 15:11:10;;;;;;;;;;;;;;;;;;5055568;28;19908;-77
2022/06/26 15:13:36;;;;;;;;;;;;;;;;;;5055529;28;19955;-76
2022/06/26 15:16:02;;;;;;;;;;;;;;;;;;5055768;28;20353;-75
2022/06/26 15:18:27;;;;;;;;;;;;;;;;;;5055158;28;19915;-75
2022/06/26 15:20:53;;;;;;;;;;;;;;;;;;5055139;28;19915;-76
2022/06/26 15:23:19;;;;;;;;;;;;;;;;;;5055589;28;20446;-77
2022/06/26 15:25:45;;;;;;;;;;;;;;;;;;5055319;28;19932;-75
2022/06/26 15:28:12;;;;;;;;;;;;;;;;;;5053667;28;19915;-75
2022/06/26 15:30:38;;;;;;;;;;;;;;;;;;5054809;28;19920;-76
2022/06/26 15:33:04;;;;;;;;;;;;;;;;;;5055170;28;19909;-75
2022/06/26 15:35:30;;;;;;;;;;;;;;;;;;5054867;28;19909;-74
2022/06/26 15:37:57;;;;;;;;;;;;;;;;;;5054787;28;20292;-78
2022/06/26 15:40:22;;;;;;;;;;;;;;;;;;5054748;28;19959;-74
2022/06/26 15:42:48;;;;;;;;;;;;;;;;;;5054696;28;20327;-77
2022/06/26 15:45:14;;;;;;;;;;;;;;;;;;5054685;28;19962;-76
2022/06/26 15:47:40;;;;;;;;;;;;;;;;;;5054905;28;19909;-75
2022/06/26 15:50:06;;;;;;;;;;;;;;;;;;5053193;28;19919;-76
2022/06/26 15:52:32;;;;;;;;;;;;;;;;;;5054526;28;20327;-75
2022/06/26 15:54:58;;;;;;;;;;;;;;;;;;5054496;28;19908;-76
2022/06/26 15:57:24;;;;;;;;;;;;;;;;;;5054735;28;19909;-75
2022/06/26 15:59:50;;;;;;;;;;;;;;;;;;5053077;28;20253;-75
2022/06/26 16:02:15;;;;;;;;;;;;;;;;;;5054878;28;19909;-76
2022/06/26 16:04:41;;;;;;;;;;;;;;;;;;5054314;28;19956;-76
2022/06/26 16:07:07;;;;;;;;;;;;;;;;;;5054594;28;20383;-74
2022/06/26 16:09:33;;;;;;;;;;;;;;;;;;5054458;28;19909;-77
2022/06/26 16:11:59;;;;;;;;;;;;;;;;;;5054184;28;19966;-75
2022/06/26 16:14:25;;;;;;;;;;;;;;;;;;5054115;28;19909;-75
2022/06/26 16:16:52;;;;;;;;;;;;;;;;;;5054350;28;19908;-76
2022/06/26 16:19:17;;;;;;;;;;;;;;;;;;5052784;28;20004;-76
2022/06/26 16:26:16;;;;;;;;;;;;;;;;;;5054331;28;19948;-77
2022/06/26 16:27:15;;;;;;;;;;;;;;;;;;5053656;28;20434;-76
2022/06/26 16:29:41;;;;;;;;;;;;;;;;;;5052541;28;19916;-73
2022/06/26 16:32:09;;;;;;;;;;;;;;;;;;5052188;28;20205;-76
2022/06/26 16:34:35;;;;;;;;;;;;;;;;;;5053813;28;20323;-75
2022/06/26 16:37:01;;;;;;;;;;;;;;;;;;5052513;28;19909;-76
2022/06/26 16:39:27;;;;;;;;;;;;;;;;;;5053742;28;19916;-75
2022/06/26 16:41:53;;;;;;;;;;;;;;;;;;5053983;28;19909;-74
2022/06/26 16:44:19;;;;;;;;;;;;;;;;;;5053947;28;19913;-77
2022/06/26 16:46:45;;;;;;;;;;;;;;;;;;5054189;28;19908;-77
2022/06/26 16:49:11;;;;;;;;;;;;;;;;;;5053509;28;20368;-76
2022/06/26 16:51:37;;;;;;;;;;;;;;;;;;5052226;28;19999;-77
2022/06/26 16:54:03;;;;;;;;;;;;;;;;;;5054089;28;20345;-75
2022/06/26 16:56:29;;;;;;;;;;;;;;;;;;5053828;28;19920;-75
2022/06/26 16:58:55;;;;;;;;;;;;;;;;;;5053549;28;20328;-76
2022/06/26 17:01:20;;;;;;;;;;;;;;;;;;5052281;28;19939;-75